Time;durP1;ratioP1;P1;durP2;ratioP2;P2;SDS_P1;SDS_P2;PMS_P1;PMS_P2;Temp;Humidity;BMP_temperature;BMP_pressure;BME280_temperature;BME280_humidity;BME280_pressure;Samples;Min_cycle;Max_cycle;Signal;HPM_P1;HPM_P2
2022/03/08 00:01:54;;;;;;;13.43;10.05;;;;;;;1.47;59.86;102304.84;5010398;28;20037;-74
2022/03/08 00:04:19;;;;;;;13.65;8.82;;;;;;;1.42;59.32;102292.81;4997941;28;20022;-74
2022/03/08 00:06:45;;;;;;;14.00;9.27;;;;;;;1.41;59.48;102297.13;4992654;28;20081;-74
2022/03/08 00:09:11;;;;;;;14.05;8.68;;;;;;;1.39;59.97;102290.25;4990893;28;20029;-74
2022/03/08 00:11:37;;;;;;;14.10;9.02;;;;;;;1.36;60.14;102292.88;4990695;28;20030;-74
2022/03/08 00:14:02;;;;;;;13.23;8.80;;;;;;;1.32;60.12;102291.22;4992160;28;20035;-74
2022/03/08 00:16:28;;;;;;;12.15;9.50;;;;;;;1.31;60.25;102289.50;4993570;28;20095;-74
2022/03/08 00:18:53;;;;;;;12.00;8.70;;;;;;;1.29;60.63;102288.66;4995270;28;20056;-73
2022/03/08 00:21:19;;;;;;;15.98;8.57;;;;;;;1.24;60.49;102292.16;5007330;28;20516;-74
2022/03/08 00:23:45;;;;;;;13.05;9.27;;;;;;;1.21;60.85;102292.22;5011473;28;20018;-74
2022/03/08 00:26:10;;;;;;;11.55;8.95;;;;;;;1.18;60.90;102289.63;5010566;28;20036;-74
2022/03/08 00:28:36;;;;;;;12.20;8.48;;;;;;;1.16;61.09;102287.94;4992292;28;20125;-74
2022/03/08 00:31:02;;;;;;;15.30;8.65;;;;;;;1.14;60.65;102287.94;4991566;28;20105;-74
2022/03/08 00:33:28;;;;;;;10.98;8.27;;;;;;;1.13;60.67;102280.19;4999951;28;20018;-75
2022/03/08 00:35:53;;;;;;;11.60;8.73;;;;;;;1.10;60.52;102286.28;5009467;28;20054;-74
2022/03/08 00:38:20;;;;;;;11.95;8.77;;;;;;;1.10;61.22;102280.22;5011095;28;20026;-74
2022/03/08 00:40:46;;;;;;;12.80;8.63;;;;;;;1.09;60.80;102279.38;5010344;28;20376;-74
2022/03/08 00:43:11;;;;;;;13.82;8.98;;;;;;;1.07;61.01;102275.94;4998610;28;20149;-74
2022/03/08 00:45:37;;;;;;;11.70;8.40;;;;;;;1.06;60.63;102276.81;5010412;28;20347;-74
2022/03/08 00:48:03;;;;;;;13.73;8.38;;;;;;;1.06;60.76;102282.00;5010305;28;20033;-74
2022/03/08 00:50:31;;;;;;;11.75;8.10;;;;;;;1.03;60.37;102279.44;5006595;28;20516;-74
2022/03/08 00:52:57;;;;;;;12.60;8.63;;;;;;;1.03;60.41;102279.44;4998747;28;20734;-74
2022/03/08 00:55:25;;;;;;;10.90;8.52;;;;;;;1.02;60.51;102282.91;5010389;28;20026;-74
2022/03/08 00:57:51;;;;;;;11.38;8.20;;;;;;;1.02;59.72;102276.88;5011355;28;20405;-74
2022/03/08 01:00:18;;;;;;;10.85;8.15;;;;;;;1.00;60.68;102284.66;5011083;28;20033;-73
2022/03/08 01:02:44;;;;;;;10.10;8.18;;;;;;;0.99;60.25;102288.13;5010046;28;20486;-74
2022/03/08 01:05:10;;;;;;;11.07;8.18;;;;;;;0.98;59.77;102277.78;5011059;28;20037;-76
2022/03/08 01:07:35;;;;;;;12.98;7.97;;;;;;;0.99;59.90;102271.72;5010899;28;20117;-77
2022/03/08 01:10:03;;;;;;;12.63;8.15;;;;;;;0.99;59.98;102274.31;5010521;28;20474;-77
2022/03/08 01:12:29;;;;;;;13.60;8.43;;;;;;;0.98;60.03;102270.88;5011503;28;20085;-76
2022/03/08 01:14:54;;;;;;;11.40;8.20;;;;;;;0.99;59.39;102267.41;5010401;28;20666;-76
2022/03/08 01:17:20;;;;;;;11.52;8.27;;;;;;;1.01;59.40;102270.84;5009243;28;20129;-75
2022/03/08 01:19:45;;;;;;;12.15;8.13;;;;;;;1.02;58.68;102282.06;5010855;28;20115;-75
2022/03/08 01:22:11;;;;;;;13.30;7.68;;;;;;;1.04;58.52;102281.16;5010020;28;20021;-75
2022/03/08 01:24:36;;;;;;;12.00;7.80;;;;;;;1.03;58.85;102274.25;5010864;28;20025;-75
2022/03/08 01:27:02;;;;;;;10.93;7.65;;;;;;;1.05;58.62;102267.31;4999204;28;20477;-75
2022/03/08 01:29:28;;;;;;;9.77;7.63;;;;;;;1.07;58.17;102264.72;4994736;28;20030;-75
2022/03/08 01:31:53;;;;;;;12.00;8.13;;;;;;;1.09;58.24;102269.00;4990271;28;20398;-75
2022/03/08 01:34:19;;;;;;;11.60;8.27;;;;;;;1.10;58.38;102262.09;5004070;28;20034;-75
2022/03/08 01:36:44;;;;;;;11.07;8.07;;;;;;;1.10;58.48;102256.91;4991972;28;20046;-75
2022/03/08 01:39:09;;;;;;;11.02;8.25;;;;;;;1.09;58.24;102258.63;4989772;28;20037;-74
2022/03/08 01:41:35;;;;;;;11.00;8.13;;;;;;;1.08;58.61;102254.34;4990303;28;20026;-74
2022/03/08 01:44:01;;;;;;;12.48;7.82;;;;;;;1.08;58.05;102241.38;4997091;28;20104;-75
2022/03/08 01:46:26;;;;;;;11.65;7.70;;;;;;;1.08;58.38;102241.38;5010108;28;20044;-73
2022/03/08 01:48:51;;;;;;;12.15;7.85;;;;;;;1.09;58.35;102237.91;5007664;28;20133;-68
2022/03/08 01:51:17;;;;;;;11.70;8.13;;;;;;;1.08;58.36;102235.34;5007803;28;20108;-67
2022/03/08 01:53:43;;;;;;;12.07;8.27;;;;;;;1.07;57.86;102238.81;5009758;28;20478;-67
2022/03/08 01:56:09;;;;;;;9.60;7.72;;;;;;;1.07;58.09;102234.47;5010179;28;20026;-67
2022/03/08 01:58:36;;;;;;;10.80;7.45;;;;;;;1.08;58.03;102231.00;5005704;28;20096;-68
2022/03/08 02:01:03;;;;;;;8.70;7.47;;;;;;;1.09;57.94;102239.63;4990125;28;20092;-67
2022/03/08 02:03:29;;;;;;;11.25;8.07;;;;;;;1.09;57.78;102232.72;4990968;28;20018;-67
2022/03/08 02:05:54;;;;;;;10.77;7.82;;;;;;;1.09;57.50;102224.94;5001817;28;20389;-67
2022/03/08 02:08:20;;;;;;;10.13;7.95;;;;;;;1.11;57.69;102225.78;5010395;28;20281;-67
2022/03/08 02:10:46;;;;;;;9.40;7.95;;;;;;;1.09;57.11;102222.34;5009179;28;20469;-67
2022/03/08 02:13:11;;;;;;;10.52;7.95;;;;;;;1.11;57.39;102220.59;5008377;28;20030;-67
2022/03/08 02:15:37;;;;;;;11.75;8.00;;;;;;;1.10;57.62;102218.88;5010163;28;20400;-68
2022/03/08 02:18:03;;;;;;;11.23;8.05;;;;;;;1.08;57.74;102215.47;5009480;28;20041;-70
2022/03/08 02:20:29;;;;;;;11.02;7.78;;;;;;;1.09;57.89;102217.16;5010037;28;20029;-67
2022/03/08 02:22:55;;;;;;;11.32;7.80;;;;;;;1.09;57.38;102211.13;5002590;28;20028;-68
2022/03/08 02:25:21;;;;;;;10.60;7.80;;;;;;;1.07;57.80;102218.94;4989873;28;20034;-68
2022/03/08 02:27:52;;;;;;;10.80;7.63;;;;;;;1.07;57.67;102218.94;4990130;28;20061;-67
2022/03/08 02:30:19;;;;;;;12.27;8.23;;;;;;;1.08;57.98;102218.06;4989732;28;20137;-67
2022/03/08 02:32:45;;;;;;;9.90;8.15;;;;;;;1.05;58.33;102218.09;4990055;28;20037;-70
2022/03/08 02:35:14;;;;;;;9.95;7.60;;;;;;;1.05;57.57;102210.31;4989245;28;20018;-68
2022/03/08 02:37:42;;;;;;;10.40;8.30;;;;;;;1.03;57.90;102212.06;4989371;28;20034;-68
2022/03/08 02:40:10;;;;;;;11.95;8.90;;;;;;;1.03;58.00;102209.47;4988941;28;20098;-68
2022/03/08 02:42:39;;;;;;;14.43;8.75;;;;;;;1.03;57.75;102201.69;4989541;28;20038;-68
2022/03/08 02:45:06;;;;;;;11.18;8.55;;;;;;;1.03;58.01;102196.53;5005068;28;20036;-68
2022/03/08 02:47:31;;;;;;;10.98;9.05;;;;;;;1.01;58.24;102187.06;5007341;28;20036;-68
2022/03/08 02:49:57;;;;;;;11.77;8.38;;;;;;;1.01;57.82;102192.25;5008842;28;20034;-68
2022/03/08 02:52:23;;;;;;;10.85;7.93;;;;;;;0.98;58.08;102187.09;5012166;28;20025;-68
2022/03/08 02:54:49;;;;;;;10.40;8.32;;;;;;;0.98;58.39;102184.50;5012509;28;20437;-68
2022/03/08 02:57:14;;;;;;;11.65;8.10;;;;;;;0.96;58.54;102189.72;5012764;28;20030;-68
2022/03/08 02:59:39;;;;;;;12.75;8.73;;;;;;;0.96;58.30;102181.94;5011649;28;20025;-68
2022/03/08 03:02:05;;;;;;;10.15;8.25;;;;;;;0.93;58.30;102179.38;4998265;28;20027;-68
2022/03/08 03:04:30;;;;;;;10.32;7.88;;;;;;;0.91;58.68;102160.41;4994802;28;20029;-68
2022/03/08 03:06:56;;;;;;;11.25;8.27;;;;;;;0.87;58.74;102159.59;5009348;28;20232;-68
2022/03/08 03:09:21;;;;;;;11.27;8.57;;;;;;;0.88;58.52;102165.63;5013674;28;20382;-67
2022/03/08 03:11:46;;;;;;;10.65;8.57;;;;;;;0.87;58.22;102166.50;5013132;28;20026;-70
2022/03/08 03:14:12;;;;;;;11.05;8.65;;;;;;;0.86;58.41;102159.63;5000208;28;20364;-70
2022/03/08 03:16:37;;;;;;;11.32;8.60;;;;;;;0.83;58.86;102157.06;4992375;28;20061;-70
2022/03/08 03:19:03;;;;;;;12.35;8.23;;;;;;;0.83;58.69;102164.84;4992344;28;20027;-70
2022/03/08 03:21:28;;;;;;;11.60;8.20;;;;;;;0.80;58.56;102151.91;4998771;28;20025;-68
2022/03/08 03:23:54;;;;;;;11.68;8.63;;;;;;;0.79;58.71;102140.69;5028244;28;20022;-67
2022/03/08 03:26:19;;;;;;;10.45;8.55;;;;;;;0.78;58.55;102132.94;5013236;28;20030;-68
2022/03/08 03:28:44;;;;;;;13.00;9.00;;;;;;;0.77;58.88;102131.22;5011924;28;20037;-67
2022/03/08 03:31:10;;;;;;;12.73;8.73;;;;;;;0.75;58.75;102135.56;5012616;28;20168;-67
2022/03/08 03:33:35;;;;;;;10.73;8.27;;;;;;;0.74;59.03;102132.13;5012618;28;20026;-68
2022/03/08 03:36:03;;;;;;;9.88;8.48;;;;;;;0.71;58.65;102131.28;5008806;28;20102;-67
2022/03/08 03:38:28;;;;;;;11.93;8.45;;;;;;;0.68;59.29;102131.34;5011989;28;20645;-67
2022/03/08 03:40:54;;;;;;;9.68;7.95;;;;;;;0.68;58.73;102123.56;5009160;28;20026;-68
2022/03/08 03:43:19;;;;;;;10.95;8.40;;;;;;;0.68;58.62;102131.34;5011389;28;20564;-67
2022/03/08 03:45:44;;;;;;;10.15;8.57;;;;;;;0.67;59.38;102129.63;5011815;28;20042;-70
2022/03/08 03:48:09;;;;;;;11.73;8.93;;;;;;;0.65;59.65;102126.19;4992777;28;20018;-70
2022/03/08 03:50:35;;;;;;;12.20;8.35;;;;;;;0.62;59.50;102122.78;4992066;28;20036;-67
2022/03/08 03:53:00;;;;;;;11.25;8.70;;;;;;;0.62;59.35;102125.38;4997351;28;20025;-67
2022/03/08 03:55:26;;;;;;;13.32;8.82;;;;;;;0.59;59.72;102138.34;5011977;28;20135;-67
2022/03/08 03:57:51;;;;;;;12.07;8.90;;;;;;;0.55;59.96;102130.63;5011036;28;20108;-67
2022/03/08 04:00:17;;;;;;;12.60;8.73;;;;;;;0.54;59.58;102137.56;4995585;28;20042;-68
2022/03/08 04:02:43;;;;;;;11.98;8.90;;;;;;;0.52;59.45;102128.94;4990150;28;20050;-67
2022/03/08 04:05:10;;;;;;;14.50;8.60;;;;;;;0.51;60.22;102126.38;4991659;28;20368;-68
2022/03/08 04:07:37;;;;;;;12.80;8.73;;;;;;;0.50;59.82;102129.84;4992443;28;20041;-68
2022/03/08 04:10:05;;;;;;;10.60;8.48;;;;;;;0.47;60.27;102127.28;4992354;28;20109;-68
2022/03/08 04:12:30;;;;;;;12.55;9.45;;;;;;;0.46;61.38;102130.75;4990710;28;20113;-68
2022/03/08 04:14:55;;;;;;;10.77;8.70;;;;;;;0.44;60.86;102133.38;4992384;28;20026;-68
2022/03/08 04:17:21;;;;;;;10.77;8.80;;;;;;;0.43;60.35;102130.78;4993069;28;20052;-68
2022/03/08 04:19:46;;;;;;;11.65;8.88;;;;;;;0.40;60.60;102129.09;4992463;28;20023;-68
2022/03/08 04:22:11;;;;;;;12.52;8.52;;;;;;;0.39;60.20;102126.50;4992093;28;20529;-68
2022/03/08 04:24:37;;;;;;;12.25;8.82;;;;;;;0.37;60.77;102126.50;4990599;28;20450;-68
2022/03/08 04:27:03;;;;;;;14.07;9.27;;;;;;;0.36;60.83;102127.38;4990909;28;20053;-68
2022/03/08 04:29:29;;;;;;;10.23;8.77;;;;;;;0.36;60.20;102124.81;4990941;28;20026;-68
2022/03/08 04:31:54;;;;;;;12.23;9.48;;;;;;;0.36;60.37;102123.94;4991510;28;20459;-67
2022/03/08 04:34:20;;;;;;;12.15;9.13;;;;;;;0.33;60.85;102124.84;4992339;28;20034;-68
2022/03/08 04:36:45;;;;;;;11.95;9.15;;;;;;;0.34;60.25;102123.09;4992206;28;20101;-67
2022/03/08 04:39:11;;;;;;;13.80;9.35;;;;;;;0.33;60.20;102122.25;4990000;28;20116;-68
2022/03/08 04:41:37;;;;;;;12.02;9.43;;;;;;;0.31;60.78;102129.16;4992458;28;20065;-67
2022/03/08 04:44:02;;;;;;;10.75;9.32;;;;;;;0.30;61.28;102125.72;4998128;28;20021;-68
2022/03/08 04:46:28;;;;;;;12.68;9.55;;;;;;;0.28;60.86;102127.47;5007130;28;20402;-68
2022/03/08 04:48:53;;;;;;;12.73;9.48;;;;;;;0.26;61.33;102128.38;5011008;28;20030;-67
2022/03/08 04:51:18;;;;;;;13.55;9.48;;;;;;;0.25;61.27;102126.66;5011337;28;20071;-68
2022/03/08 04:53:44;;;;;;;10.50;8.85;;;;;;;0.24;61.02;102125.81;5009838;28;20034;-67
2022/03/08 04:56:09;;;;;;;11.13;8.82;;;;;;;0.21;61.14;102131.00;5010589;28;20021;-67
2022/03/08 04:58:34;;;;;;;14.38;9.02;;;;;;;0.21;61.04;102125.84;5010425;28;20052;-67
2022/03/08 05:01:03;;;;;;;14.25;9.25;;;;;;;0.20;60.99;102128.44;5007002;28;20049;-67
2022/03/08 05:03:28;;;;;;;11.77;9.55;;;;;;;0.18;61.70;102123.28;5005270;28;20497;-67
2022/03/08 05:05:54;;;;;;;12.00;9.25;;;;;;;0.18;61.88;102118.09;4989795;28;20022;-68
2022/03/08 05:08:19;;;;;;;11.90;9.27;;;;;;;0.17;60.89;102129.34;4987785;28;20541;-68
2022/03/08 05:10:44;;;;;;;12.13;9.27;;;;;;;0.16;61.84;102124.16;4990668;28;20405;-68
2022/03/08 05:13:09;;;;;;;12.93;9.30;;;;;;;0.15;61.64;102125.91;5003663;28;20033;-69
2022/03/08 05:15:36;;;;;;;12.70;9.15;;;;;;;0.15;61.63;102117.28;5009116;28;20022;-69
2022/03/08 05:18:02;;;;;;;14.32;9.63;;;;;;;0.13;61.25;102114.72;5008576;28;20022;-68
2022/03/08 05:20:27;;;;;;;13.88;9.60;;;;;;;0.12;61.34;102112.16;5010672;28;20096;-69
2022/03/08 05:22:52;;;;;;;14.88;9.38;;;;;;;0.11;61.83;102108.69;5009596;28;20026;-68
2022/03/08 05:25:18;;;;;;;13.82;9.18;;;;;;;0.11;61.58;102105.25;5010170;28;20032;-69
2022/03/08 05:27:43;;;;;;;13.73;10.30;;;;;;;0.10;61.89;102108.72;5006542;28;20037;-68
2022/03/08 05:30:10;;;;;;;12.00;9.18;;;;;;;0.08;61.92;102100.97;5000751;28;20061;-69
2022/03/08 05:32:35;;;;;;;14.38;9.85;;;;;;;0.08;62.20;102107.88;5009582;28;20036;-68
2022/03/08 05:35:01;;;;;;;13.32;9.10;;;;;;;0.08;61.74;102107.88;5009673;28;20017;-68
2022/03/08 05:37:26;;;;;;;14.02;9.57;;;;;;;0.06;61.86;102099.28;4999916;28;20534;-68
2022/03/08 05:39:52;;;;;;;13.25;9.38;;;;;;;0.05;62.25;102101.00;4991398;28;20080;-68
2022/03/08 05:42:17;;;;;;;14.95;9.25;;;;;;;0.05;62.03;102098.41;4990378;28;20381;-68
2022/03/08 05:44:42;;;;;;;13.02;9.05;;;;;;;0.05;61.98;102097.56;5004014;28;20800;-68
2022/03/08 05:47:07;;;;;;;14.45;9.45;;;;;;;0.04;62.30;102101.88;5007668;28;22918;-75
2022/03/08 05:49:33;;;;;;;11.23;9.50;;;;;;;0.03;62.24;102110.50;5008783;28;20065;-74
2022/03/08 05:51:58;;;;;;;11.43;8.77;;;;;;;0.01;61.94;102103.63;5008876;28;20026;-73
2022/03/08 05:54:24;;;;;;;12.43;9.18;;;;;;;0.03;61.89;102105.34;4991530;28;20030;-74
2022/03/08 05:56:49;;;;;;;11.90;9.02;;;;;;;0.02;61.49;102105.34;4990072;28;20018;-74
2022/03/08 05:59:14;;;;;;;14.68;9.65;;;;;;;0.01;61.95;102107.09;4990499;28;20682;-74
2022/03/08 06:01:40;;;;;;;14.25;8.90;;;;;;;0.01;62.45;102101.06;4990442;28;20026;-74
2022/03/08 06:04:06;;;;;;;11.52;8.82;;;;;;;0.02;62.33;102095.00;4997708;28;20054;-74
2022/03/08 06:06:32;;;;;;;12.77;9.23;;;;;;;0.02;61.87;102098.44;5010129;28;20482;-74
2022/03/08 06:08:57;;;;;;;13.23;9.65;;;;;;;0.04;61.89;102093.25;5009484;28;20044;-74
2022/03/08 06:11:22;;;;;;;11.55;9.50;;;;;;;0.04;61.90;102090.66;5009037;28;20418;-75
2022/03/08 06:13:47;;;;;;;15.13;9.10;;;;;;;0.04;61.92;102095.84;5009180;28;20028;-74
2022/03/08 06:16:13;;;;;;;11.63;9.02;;;;;;;0.04;61.63;102082.91;5008697;28;20032;-75
2022/03/08 06:18:39;;;;;;;12.25;9.07;;;;;;;0.04;61.88;102093.25;5006519;28;20698;-74
2022/03/08 06:21:05;;;;;;;12.80;9.35;;;;;;;0.04;61.83;102093.25;5008384;28;20029;-76
2022/03/08 06:23:30;;;;;;;10.45;8.95;;;;;;;0.03;61.79;102094.13;5007425;28;20021;-74
2022/03/08 06:25:56;;;;;;;11.68;9.23;;;;;;;0.03;61.75;102092.41;5004719;28;20266;-74
2022/03/08 06:28:21;;;;;;;12.20;9.18;;;;;;;0.03;62.02;102099.31;5008607;28;20044;-74
2022/03/08 06:30:46;;;;;;;13.20;8.68;;;;;;;0.03;61.76;102095.00;5007070;28;20018;-74
2022/03/08 06:33:12;;;;;;;13.02;9.32;;;;;;;0.03;61.73;102097.56;5002979;28;20112;-74
2022/03/08 06:35:37;;;;;;;13.15;8.70;;;;;;;0.04;61.93;102095.84;5007920;28;20565;-74
2022/03/08 06:38:03;;;;;;;10.88;8.60;;;;;;;0.05;61.87;102092.38;5008032;28;20026;-74
2022/03/08 06:40:28;;;;;;;13.98;9.20;;;;;;;0.06;62.09;102088.94;5009226;28;20037;-74
2022/03/08 06:42:54;;;;;;;11.88;9.07;;;;;;;0.09;62.13;102091.47;5008247;28;20060;-74
2022/03/08 06:45:19;;;;;;;14.05;9.10;;;;;;;0.09;61.80;102097.50;5004815;28;20829;-74
2022/03/08 06:47:44;;;;;;;16.95;9.27;;;;;;;0.10;62.25;102090.59;5009186;28;20113;-74
2022/03/08 06:50:10;;;;;;;14.65;8.60;;;;;;;0.13;61.67;102095.75;5008719;28;20028;-74
2022/03/08 06:52:35;;;;;;;12.98;8.95;;;;;;;0.14;62.16;102098.31;4999149;28;20033;-74
2022/03/08 06:55:01;;;;;;;13.05;9.07;;;;;;;0.16;61.53;102093.13;4999436;28;20488;-74
2022/03/08 06:57:26;;;;;;;13.43;9.52;;;;;;;0.19;61.54;102096.53;5005645;28;20026;-74
2022/03/08 06:59:52;;;;;;;12.20;9.13;;;;;;;0.22;60.88;102096.50;5001393;28;20034;-74
2022/03/08 07:02:17;;;;;;;11.65;8.82;;;;;;;0.25;60.96;102099.03;4999010;28;20022;-74
2022/03/08 07:04:43;;;;;;;12.40;9.02;;;;;;;0.29;61.08;102097.28;5002277;28;20364;-74
2022/03/08 07:07:08;;;;;;;11.35;8.80;;;;;;;0.33;61.01;102096.38;5002794;28;20053;-73
2022/03/08 07:09:33;;;;;;;13.77;9.10;;;;;;;0.35;60.63;102092.03;5004548;28;20080;-74
2022/03/08 07:11:59;;;;;;;14.05;9.48;;;;;;;0.39;60.48;102100.59;5008355;28;20026;-74
2022/03/08 07:14:24;;;;;;;10.68;9.25;;;;;;;0.41;60.59;102094.56;5011042;28;20032;-74
2022/03/08 07:16:50;;;;;;;15.93;9.75;;;;;;;0.45;60.25;102088.47;5004099;28;20034;-74
2022/03/08 07:19:16;;;;;;;12.20;9.25;;;;;;;0.49;60.48;102097.91;5006198;28;20026;-74
2022/03/08 07:21:42;;;;;;;14.63;9.15;;;;;;;0.54;60.71;102109.06;5007041;28;20022;-74
2022/03/08 07:24:08;;;;;;;13.20;9.70;;;;;;;0.59;60.89;102104.69;5004789;28;20101;-74
2022/03/08 07:26:33;;;;;;;14.38;9.40;;;;;;;0.66;60.16;102104.59;5008318;28;20379;-74
2022/03/08 07:28:59;;;;;;;13.02;9.10;;;;;;;0.69;59.78;102100.25;5007243;28;20087;-75
2022/03/08 07:31:24;;;;;;;11.70;9.00;;;;;;;0.76;59.75;102103.59;5007931;28;20080;-74
2022/03/08 07:33:49;;;;;;;14.38;8.88;;;;;;;0.83;59.46;102107.84;5005380;28;20030;-74
2022/03/08 07:36:15;;;;;;;12.52;9.10;;;;;;;0.88;59.00;102108.63;5006772;28;20383;-74
2022/03/08 07:38:40;;;;;;;13.30;9.73;;;;;;;0.96;58.91;102108.53;4991846;28;20522;-74
2022/03/08 07:41:06;;;;;;;12.35;8.82;;;;;;;1.01;58.50;102109.31;5009391;28;20032;-74
2022/03/08 07:43:34;;;;;;;12.30;9.15;;;;;;;1.07;59.18;102098.84;5010011;28;20669;-74
2022/03/08 07:45:59;;;;;;;12.07;9.07;;;;;;;1.13;58.41;102097.03;5010462;28;20169;-74
2022/03/08 07:48:25;;;;;;;17.27;9.00;;;;;;;1.18;58.45;102095.22;5007728;28;20125;-74
2022/03/08 07:50:50;;;;;;;12.35;9.55;;;;;;;1.23;57.97;102085.66;5010804;28;20037;-74
2022/03/08 07:53:15;;;;;;;11.30;8.65;;;;;;;1.32;57.45;102089.00;5010123;28;20033;-74
2022/03/08 07:55:40;;;;;;;14.68;8.68;;;;;;;1.38;57.22;102089.75;5010851;28;20026;-74
2022/03/08 07:58:11;;;;;;;13.27;8.85;;;;;;;1.46;57.13;102093.06;5010394;28;20022;-75
2022/03/08 08:00:37;;;;;;;11.95;8.70;;;;;;;1.54;56.31;102095.53;5010852;28;20386;-74
2022/03/08 08:03:03;;;;;;;13.02;8.70;;;;;;;1.63;55.80;102097.13;5011081;28;20029;-73
2022/03/08 08:05:29;;;;;;;10.52;9.00;;;;;;;1.69;56.24;102087.50;5001095;28;20318;-74
2022/03/08 08:07:54;;;;;;;9.50;8.30;;;;;;;1.78;56.15;102095.13;5007929;28;20021;-74
2022/03/08 08:10:19;;;;;;;10.88;7.55;;;;;;;1.86;54.86;102092.38;5010806;28;20018;-74
2022/03/08 08:12:45;;;;;;;14.20;8.60;;;;;;;1.95;54.79;102091.34;5010915;28;20022;-75
2022/03/08 08:15:11;;;;;;;11.10;8.30;;;;;;;2.02;55.53;102098.19;5010981;28;20672;-75
2022/03/08 08:17:37;;;;;;;12.20;8.73;;;;;;;2.10;55.25;102096.28;5010677;28;20030;-75
2022/03/08 08:20:03;;;;;;;11.85;8.57;;;;;;;2.18;54.77;102100.44;5010490;28;20029;-75
2022/03/08 08:22:28;;;;;;;10.52;8.68;;;;;;;2.27;54.59;102098.56;5008880;28;20026;-75
2022/03/08 08:24:53;;;;;;;11.18;8.13;;;;;;;2.34;54.37;102095.78;5009703;28;20041;-75
2022/03/08 08:27:19;;;;;;;10.43;8.10;;;;;;;2.44;54.91;102096.50;5009693;28;20038;-75
2022/03/08 08:29:45;;;;;;;11.18;8.25;;;;;;;2.50;54.04;102094.63;5010581;28;20029;-75
2022/03/08 08:32:11;;;;;;;9.95;7.90;;;;;;;2.58;53.52;102088.41;5009997;28;20026;-74
2022/03/08 08:34:39;;;;;;;12.95;8.45;;;;;;;2.68;53.40;102095.13;5009531;28;20523;-75
2022/03/08 08:37:04;;;;;;;9.55;7.80;;;;;;;2.74;53.17;102095.84;5012135;28;20044;-75
2022/03/08 08:39:30;;;;;;;11.07;8.43;;;;;;;2.81;53.80;102092.25;5012981;28;20108;-75
2022/03/08 08:41:56;;;;;;;9.15;7.82;;;;;;;2.88;52.12;102082.56;5016970;28;20026;-75
2022/03/08 08:44:24;;;;;;;11.80;7.90;;;;;;;2.97;52.43;102082.34;5008280;28;20072;-74
2022/03/08 08:46:49;;;;;;;11.07;7.68;;;;;;;3.04;51.96;102090.84;5012010;28;20524;-75
2022/03/08 08:49:14;;;;;;;10.23;7.93;;;;;;;3.11;51.56;102080.28;5010603;28;20029;-74
2022/03/08 08:51:40;;;;;;;10.05;7.10;;;;;;;3.22;51.78;102074.00;5010145;28;20021;-75
2022/03/08 08:54:06;;;;;;;9.85;7.40;;;;;;;3.28;51.09;102072.09;5007896;28;20101;-75
2022/03/08 08:56:35;;;;;;;11.65;7.55;;;;;;;3.37;50.79;102078.81;5009612;28;20112;-74
2022/03/08 08:59:02;;;;;;;9.15;6.93;;;;;;;3.46;51.59;102070.78;5010765;28;20022;-74
2022/03/08 09:01:27;;;;;;;13.00;7.80;;;;;;;3.56;49.65;102082.66;5010994;28;20074;-75
2022/03/08 09:03:53;;;;;;;11.57;7.18;;;;;;;3.64;50.26;102080.75;5010687;28;20029;-75
2022/03/08 09:06:18;;;;;;;10.88;7.15;;;;;;;3.72;49.09;102068.38;5009746;28;20030;-75
2022/03/08 09:08:43;;;;;;;13.10;7.53;;;;;;;3.81;49.15;102071.63;5009378;28;20540;-74
2022/03/08 09:11:10;;;;;;;9.27;7.25;;;;;;;3.88;48.79;102083.59;5010318;28;20033;-75
2022/03/08 09:13:35;;;;;;;10.25;7.30;;;;;;;3.95;49.26;102082.53;5010120;28;20086;-75
2022/03/08 09:16:01;;;;;;;9.23;7.50;;;;;;;4.03;49.20;102083.22;5009803;28;20047;-74
2022/03/08 09:18:26;;;;;;;11.75;7.03;;;;;;;4.10;49.05;102076.94;5010379;28;20033;-75
2022/03/08 09:20:51;;;;;;;10.18;7.28;;;;;;;4.17;47.49;102091.50;5007836;28;20029;-75
2022/03/08 09:23:17;;;;;;;10.98;7.22;;;;;;;4.24;47.95;102069.59;5009508;28;20506;-75
2022/03/08 09:25:42;;;;;;;8.85;6.95;;;;;;;4.33;48.00;102069.31;5009519;28;20034;-75
2022/03/08 09:28:08;;;;;;;12.15;7.20;;;;;;;4.40;47.86;102056.97;5008939;28;20030;-75
2022/03/08 09:30:35;;;;;;;11.80;7.20;;;;;;;4.49;47.81;102050.66;5009930;28;20026;-74
2022/03/08 09:33:01;;;;;;;15.05;7.65;;;;;;;4.58;47.35;102060.81;5009577;28;20036;-75
2022/03/08 09:35:27;;;;;;;12.45;7.50;;;;;;;4.64;46.60;102050.19;5007744;28;20064;-75
2022/03/08 09:37:54;;;;;;;9.68;7.32;;;;;;;4.74;47.26;102046.41;5007844;28;20038;-75
2022/03/08 09:40:20;;;;;;;12.10;7.20;;;;;;;4.83;45.62;102056.56;5005568;28;20064;-75
2022/03/08 09:42:45;;;;;;;11.43;7.45;;;;;;;4.91;44.30;102038.94;5001628;28;20061;-75
2022/03/08 09:45:11;;;;;;;9.27;6.60;;;;;;;4.99;45.60;102036.94;5004036;28;20017;-76
2022/03/08 09:47:37;;;;;;;8.30;6.70;;;;;;;5.06;44.58;102042.78;5006140;28;20021;-75
2022/03/08 09:50:04;;;;;;;10.00;6.38;;;;;;;5.16;45.58;102043.34;5001221;28;20542;-75
2022/03/08 09:52:31;;;;;;;8.02;6.32;;;;;;;5.23;44.64;102037.91;5003832;28;20112;-75
2022/03/08 09:54:57;;;;;;;11.15;6.50;;;;;;;5.30;43.77;102051.59;5002657;28;20026;-75
2022/03/08 09:57:23;;;;;;;12.30;6.63;;;;;;;5.36;44.51;102030.53;5006753;28;20425;-74
2022/03/08 09:59:48;;;;;;;11.07;6.72;;;;;;;5.43;44.67;102034.63;5005741;28;20062;-75
2022/03/08 10:02:14;;;;;;;9.05;6.50;;;;;;;5.50;44.16;102030.91;5005478;28;20068;-75
2022/03/08 10:04:41;;;;;;;10.48;6.47;;;;;;;5.57;43.76;102028.94;5005019;28;20037;-75
2022/03/08 10:07:11;;;;;;;11.35;6.53;;;;;;;5.64;43.71;102022.63;5001313;28;20088;-76
2022/03/08 10:09:39;;;;;;;9.90;6.10;;;;;;;5.71;43.59;102025.88;5004970;28;20033;-75
2022/03/08 10:12:15;;;;;;;8.38;6.13;;;;;;;5.79;44.04;102023.84;5002872;28;20018;-76
2022/03/08 10:14:41;;;;;;;10.23;6.57;;;;;;;5.86;43.38;102025.31;5002285;28;20045;-75
2022/03/08 10:17:08;;;;;;;8.57;6.60;;;;;;;5.96;42.70;102027.56;5002767;28;20029;-76
2022/03/08 10:19:44;;;;;;;10.00;6.40;;;;;;;6.04;43.46;102018.63;5007389;28;20029;-76
2022/03/08 10:22:24;;;;;;;10.07;6.35;;;;;;;6.13;43.10;102013.06;4996956;28;20472;-75
2022/03/08 10:24:49;;;;;;;7.68;6.88;;;;;;;6.20;42.37;102011.94;5001963;28;20033;-76
2022/03/08 10:27:16;;;;;;;8.80;6.53;;;;;;;6.27;42.56;102011.63;4999992;28;20100;-76
2022/03/08 10:29:42;;;;;;;12.93;6.75;;;;;;;6.39;42.80;102012.94;4996486;28;20034;-75
2022/03/08 10:32:10;;;;;;;8.77;6.43;;;;;;;6.50;41.80;102012.53;4999431;28;20025;-76
2022/03/08 10:34:39;;;;;;;10.60;6.63;;;;;;;6.63;42.64;102019.00;4997428;28;20026;-76
2022/03/08 10:37:17;;;;;;;9.48;6.35;;;;;;;6.74;42.52;102003.72;4994597;28;20044;-75
2022/03/08 10:39:59;;;;;;;9.68;6.43;;;;;;;6.85;42.17;101998.94;5004439;28;20557;-76
2022/03/08 10:42:33;;;;;;;8.55;6.63;;;;;;;6.95;41.77;101993.34;4993212;28;20026;-76
2022/03/08 10:45:16;;;;;;;7.40;6.20;;;;;;;7.04;42.77;101993.81;5000998;28;20422;-76
2022/03/08 10:47:44;;;;;;;7.30;6.22;;;;;;;7.13;41.18;101993.44;5003217;28;20018;-76
2022/03/08 10:50:12;;;;;;;11.65;6.63;;;;;;;7.25;41.01;101986.84;5003040;28;20030;-75
2022/03/08 10:52:41;;;;;;;8.23;6.45;;;;;;;7.32;40.35;101993.53;5007101;28;20033;-75
2022/03/08 10:55:16;;;;;;;8.88;7.03;;;;;;;7.42;41.15;101991.38;4998672;28;20524;-76
2022/03/08 10:57:49;;;;;;;11.98;6.20;;;;;;;7.51;40.94;101994.44;4999959;28;20042;-76
2022/03/08 11:00:17;;;;;;;8.63;6.57;;;;;;;7.61;40.86;101988.81;5001695;28;20410;-76
2022/03/08 11:03:07;;;;;;;8.40;6.72;;;;;;;7.68;40.65;101979.78;5006003;28;20028;-76
2022/03/08 11:05:40;;;;;;;9.77;6.18;;;;;;;7.79;41.02;101981.00;5000886;28;20041;-76
2022/03/08 11:08:06;;;;;;;10.10;6.40;;;;;;;7.91;40.25;101987.47;5005471;28;20504;-76
2022/03/08 11:10:33;;;;;;;8.73;6.28;;;;;;;8.10;40.16;101977.88;5007976;28;20480;-74
2022/03/08 11:13:02;;;;;;;11.15;7.03;;;;;;;8.12;39.60;101976.03;5015473;28;20030;-75
2022/03/08 11:15:31;;;;;;;8.02;6.47;;;;;;;8.28;39.54;101970.06;5013204;28;20022;-75
2022/03/08 11:17:58;;;;;;;9.95;6.20;;;;;;;8.39;39.08;101967.81;5010019;28;20029;-75
2022/03/08 11:20:25;;;;;;;8.45;5.90;;;;;;;8.46;38.72;101974.50;5011561;28;20026;-75
2022/03/08 11:22:53;;;;;;;13.43;6.40;;;;;;;8.55;38.21;101971.44;5012249;28;20430;-75